createdAt,value
2018-07-21T00:01:32.327Z,21.80
2018-07-21T00:04:01.788Z,21.80
2018-07-21T00:06:31.144Z,21.70
2018-07-21T00:09:00.407Z,21.70
2018-07-21T00:11:29.718Z,21.60
2018-07-21T00:13:59.188Z,21.50
2018-07-21T00:16:28.521Z,21.50
2018-07-21T00:18:57.946Z,21.50
2018-07-21T00:21:27.388Z,21.40
2018-07-21T00:23:56.830Z,21.40
2018-07-21T00:26:30.692Z,21.30
2018-07-21T00:29:00.148Z,21.30
2018-07-21T00:31:29.600Z,21.20
2018-07-21T00:33:59.091Z,21.20
2018-07-21T00:36:28.626Z,21.10
2018-07-21T00:38:58.100Z,21.10
2018-07-21T00:41:27.426Z,21.80
2018-07-21T00:43:56.871Z,21.00
2018-07-21T00:49:43.874Z,21.00
2018-07-21T00:52:13.390Z,21.00
2018-07-21T00:54:42.850Z,20.90
2018-07-21T00:57:12.371Z,20.80
2018-07-21T00:59:41.754Z,20.70
2018-07-21T01:02:11.345Z,20.60
2018-07-21T01:04:40.934Z,20.50
2018-07-21T01:07:10.355Z,20.50
2018-07-21T01:09:39.782Z,20.40
2018-07-21T01:12:11.746Z,20.40
2018-07-21T01:14:41.718Z,20.30
2018-07-21T01:17:11.170Z,20.20
2018-07-21T01:19:40.574Z,20.10
2018-07-21T01:22:10.052Z,20.00
2018-07-21T01:24:39.522Z,20.00
2018-07-21T01:27:09.028Z,20.00
2018-07-21T01:29:38.491Z,19.90
2018-07-21T01:32:08.014Z,19.90
2018-07-21T01:34:37.566Z,19.90
2018-07-21T01:37:06.902Z,19.90
2018-07-21T01:39:36.290Z,20.00
2018-07-21T01:42:05.791Z,20.00
2018-07-21T01:44:35.256Z,20.00
2018-07-21T01:47:04.767Z,20.00
2018-07-21T01:49:34.170Z,19.90
2018-07-21T01:52:03.719Z,19.90
2018-07-21T01:54:33.231Z,19.90
2018-07-21T01:57:02.714Z,19.90
2018-07-21T01:59:32.166Z,19.90
2018-07-21T02:02:01.482Z,19.90
2018-07-21T02:04:31.353Z,19.80
2018-07-21T02:07:00.750Z,19.80
2018-07-21T02:09:31.117Z,19.80
2018-07-21T02:12:00.748Z,19.80
2018-07-21T02:17:00.196Z,19.80
2018-07-21T02:19:29.679Z,19.70
2018-07-21T02:21:59.122Z,19.70
2018-07-21T02:24:28.665Z,19.70
2018-07-21T02:26:57.978Z,19.60
2018-07-21T02:29:27.314Z,19.60
2018-07-21T02:31:56.627Z,19.50
2018-07-21T02:34:26.085Z,19.50
2018-07-21T02:36:55.551Z,19.40
2018-07-21T02:39:25.015Z,19.40
2018-07-21T02:41:54.512Z,19.40
2018-07-21T02:44:23.970Z,19.30
2018-07-21T02:46:53.449Z,19.30
2018-07-21T02:49:23.884Z,19.30
2018-07-21T02:51:59.948Z,19.30
2018-07-21T02:54:31.547Z,19.30
2018-07-21T02:57:01.038Z,19.20
2018-07-21T02:59:31.346Z,19.20
2018-07-21T03:02:00.874Z,19.20
2018-07-21T03:04:30.252Z,19.20
2018-07-21T03:06:59.642Z,19.20
2018-07-21T03:09:29.095Z,19.20
2018-07-21T03:11:58.551Z,19.20
2018-07-21T03:14:27.899Z,19.20
2018-07-21T03:16:57.348Z,19.20
2018-07-21T03:19:26.771Z,19.20
2018-07-21T03:21:56.130Z,19.10
2018-07-21T03:24:25.431Z,19.00
2018-07-21T03:26:54.699Z,19.00
2018-07-21T03:29:24.028Z,19.00
2018-07-21T03:31:53.379Z,19.00
2018-07-21T03:34:22.729Z,19.00
2018-07-21T03:36:52.028Z,19.00
2018-07-21T03:39:21.514Z,19.00
2018-07-21T03:41:51.002Z,19.00
2018-07-21T03:44:20.470Z,19.00
2018-07-21T03:46:49.972Z,19.00
2018-07-21T03:49:19.448Z,19.00
2018-07-21T03:51:48.938Z,19.00
2018-07-21T03:54:18.394Z,19.00
2018-07-21T03:56:47.874Z,19.00
2018-07-21T03:59:17.362Z,19.00
2018-07-21T04:01:46.794Z,19.10
2018-07-21T04:04:16.278Z,19.10
2018-07-21T04:06:45.754Z,19.10
2018-07-21T04:09:15.191Z,19.10
2018-07-21T04:11:44.690Z,19.10
2018-07-21T04:14:14.179Z,19.20
2018-07-21T04:16:43.652Z,19.20
2018-07-21T04:19:12.974Z,19.20
2018-07-21T04:21:42.258Z,19.20
2018-07-21T04:24:11.579Z,19.30
2018-07-21T04:26:41.036Z,19.30
2018-07-21T04:29:10.530Z,19.30
2018-07-21T04:31:39.814Z,19.40
2018-07-21T04:34:09.214Z,19.40
2018-07-21T04:36:38.694Z,19.40
2018-07-21T04:39:10.010Z,19.50
2018-07-21T04:41:39.351Z,19.50
2018-07-21T04:44:08.788Z,19.50
2018-07-21T04:46:38.239Z,19.60
2018-07-21T04:49:07.678Z,19.60
2018-07-21T04:51:37.170Z,19.70
2018-07-21T04:54:06.646Z,19.70
2018-07-21T04:56:36.132Z,19.80
2018-07-21T04:59:05.630Z,19.90
2018-07-21T05:01:35.078Z,19.90
2018-07-21T05:04:04.532Z,19.90
2018-07-21T05:06:34.046Z,20.00
2018-07-21T05:09:04.738Z,20.00
2018-07-21T05:11:34.219Z,20.10
2018-07-21T05:14:03.678Z,20.20
2018-07-21T05:16:34.794Z,20.20
2018-07-21T05:19:04.195Z,20.30
2018-07-21T05:21:33.658Z,20.40
2018-07-21T05:24:03.243Z,20.40
2018-07-21T05:26:32.687Z,20.50
2018-07-21T05:29:02.078Z,20.60
2018-07-21T05:31:32.099Z,20.60
2018-07-21T05:34:01.583Z,20.70
2018-07-21T05:36:31.915Z,20.70
2018-07-21T05:39:01.471Z,20.70
2018-07-21T05:41:30.891Z,20.80
2018-07-21T05:44:00.383Z,20.90
2018-07-21T05:46:29.822Z,21.00
2018-07-21T05:48:59.222Z,21.00
2018-07-21T05:51:28.755Z,21.10
2018-07-21T05:53:58.239Z,21.10
2018-07-21T05:56:27.806Z,21.20
2018-07-21T05:58:57.401Z,21.30
2018-07-21T06:01:26.866Z,21.40
2018-07-21T06:04:02.810Z,21.40
2018-07-21T06:06:32.242Z,21.50
2018-07-21T06:09:01.697Z,20.90
2018-07-21T06:14:01.030Z,21.80
2018-07-21T06:16:30.553Z,21.80
2018-07-21T06:19:01.425Z,21.90
2018-07-21T06:21:30.906Z,22.00
2018-07-21T06:24:00.415Z,22.10
2018-07-21T06:26:29.954Z,22.20
2018-07-21T06:28:59.338Z,22.20
2018-07-21T06:31:28.815Z,22.40
2018-07-21T06:33:58.094Z,22.50
2018-07-21T06:36:27.636Z,22.70
2018-07-21T06:38:57.107Z,22.70
2018-07-21T06:41:26.420Z,22.80
2018-07-21T06:44:02.261Z,23.00
2018-07-21T06:46:32.402Z,23.20
2018-07-21T06:49:01.894Z,23.50
2018-07-21T06:51:32.316Z,23.90
2018-07-21T06:54:01.660Z,24.70
2018-07-21T06:56:31.102Z,25.70
2018-07-21T06:59:00.525Z,26.60
2018-07-21T07:01:29.899Z,27.60
2018-07-21T07:03:59.362Z,28.60
2018-07-21T07:06:28.853Z,29.60
2018-07-21T07:08:58.342Z,30.50
2018-07-21T07:11:28.902Z,31.20
2018-07-21T07:13:58.182Z,32.00
2018-07-21T07:16:27.499Z,32.60
2018-07-21T07:18:56.788Z,33.40
2018-07-21T07:21:26.118Z,34.00
2018-07-21T07:23:55.415Z,34.40
2018-07-21T07:26:24.706Z,35.00
2018-07-21T07:28:54.174Z,35.40
2018-07-21T07:31:23.578Z,35.70
2018-07-21T07:33:53.052Z,35.90
2018-07-21T07:36:22.566Z,36.20
2018-07-21T07:38:52.022Z,36.60
2018-07-21T07:41:21.435Z,36.90
2018-07-21T07:43:50.890Z,37.30
2018-07-21T07:46:20.370Z,37.70
2018-07-21T07:48:49.858Z,37.90
2018-07-21T07:51:19.406Z,38.10
2018-07-21T07:53:49.829Z,38.30
2018-07-21T07:56:19.158Z,38.40
2018-07-21T07:58:48.418Z,38.00
2018-07-21T08:01:17.716Z,37.80
2018-07-21T08:03:47.012Z,37.50
2018-07-21T08:06:16.459Z,37.20
2018-07-21T08:08:45.934Z,36.60
2018-07-21T08:11:15.238Z,36.00
2018-07-21T08:13:44.667Z,35.50
2018-07-21T08:16:13.946Z,35.00
2018-07-21T08:18:43.391Z,34.50
2018-07-21T08:21:13.138Z,34.10
2018-07-21T08:23:42.610Z,33.60
2018-07-21T08:26:12.165Z,33.20
2018-07-21T08:28:41.544Z,32.70
2018-07-21T08:31:11.007Z,32.40
2018-07-21T08:33:40.272Z,31.90
2018-07-21T08:39:24.886Z,31.50
2018-07-21T08:41:54.169Z,31.20
2018-07-21T08:44:23.502Z,30.80
2018-07-21T08:46:52.779Z,30.70
2018-07-21T08:49:22.119Z,30.60
2018-07-21T08:51:51.575Z,30.50
2018-07-21T08:54:21.062Z,30.50
2018-07-21T08:56:50.407Z,30.40
2018-07-21T08:59:19.726Z,30.40
2018-07-21T09:01:49.302Z,30.40
2018-07-21T09:04:18.734Z,30.20
2018-07-21T09:06:48.183Z,30.20
2018-07-21T09:09:17.626Z,30.00
2018-07-21T09:11:47.110Z,29.90
2018-07-21T09:14:16.427Z,29.90
2018-07-21T09:16:45.694Z,29.90
2018-07-21T09:19:15.152Z,29.80
2018-07-21T09:21:44.438Z,29.90
2018-07-21T09:24:13.734Z,29.70
2018-07-21T09:26:43.021Z,29.40
2018-07-21T09:29:12.470Z,29.20
2018-07-21T09:31:41.927Z,29.20
2018-07-21T09:34:11.488Z,29.20
2018-07-21T09:36:40.954Z,29.10
2018-07-21T09:39:10.981Z,28.90
2018-07-21T09:41:40.438Z,28.90
2018-07-21T09:44:09.799Z,28.90
2018-07-21T09:46:39.297Z,29.00
2018-07-21T09:49:08.758Z,28.90
2018-07-21T09:51:38.222Z,28.80
2018-07-21T09:54:07.570Z,28.80
2018-07-21T09:56:36.845Z,28.50
2018-07-21T09:59:06.338Z,28.40
2018-07-21T10:01:35.696Z,28.30
2018-07-21T10:04:05.038Z,28.30
2018-07-21T10:06:34.292Z,28.40
2018-07-21T10:09:04.371Z,28.30
2018-07-21T10:11:33.644Z,28.20
2018-07-21T10:14:03.203Z,28.10
2018-07-21T10:16:33.125Z,28.20
2018-07-21T10:19:02.622Z,28.30
2018-07-21T10:21:32.963Z,28.20
2018-07-21T10:24:06.670Z,28.10
2018-07-21T10:26:41.370Z,28.00
2018-07-21T10:29:12.387Z,28.00
2018-07-21T10:31:42.778Z,28.10
2018-07-21T10:34:12.454Z,28.10
2018-07-21T10:36:42.122Z,28.00
2018-07-21T10:39:13.515Z,28.00
2018-07-21T10:41:42.942Z,28.00
2018-07-21T10:44:12.272Z,28.00
2018-07-21T10:46:41.711Z,28.10
2018-07-21T10:49:11.007Z,28.10
2018-07-21T10:51:40.475Z,28.40
2018-07-21T10:54:09.918Z,28.40
2018-07-21T10:56:39.299Z,28.50
2018-07-21T10:59:08.778Z,28.60
2018-07-21T11:01:38.261Z,28.60
2018-07-21T11:04:07.778Z,28.80
2018-07-21T11:06:37.270Z,28.80
2018-07-21T11:09:08.454Z,28.80
2018-07-21T11:11:37.922Z,28.80
2018-07-21T11:14:07.526Z,28.80
2018-07-21T11:16:36.942Z,28.90
2018-07-21T11:19:06.338Z,28.90
2018-07-21T11:21:35.647Z,29.00
2018-07-21T11:24:05.091Z,29.00
2018-07-21T11:26:35.750Z,29.10
2018-07-21T11:29:05.418Z,29.20
2018-07-21T11:31:35.994Z,29.30
2018-07-21T11:34:05.466Z,29.30
2018-07-21T11:36:34.985Z,29.40
2018-07-21T11:39:05.890Z,29.40
2018-07-21T11:41:35.378Z,29.40
2018-07-21T11:44:04.798Z,29.50
2018-07-21T11:46:34.312Z,29.50
2018-07-21T11:49:03.754Z,29.40
2018-07-21T11:51:33.488Z,29.40
2018-07-21T11:54:02.932Z,29.50
2018-07-21T11:56:32.233Z,29.50
2018-07-21T11:59:01.737Z,29.50
2018-07-21T12:01:31.025Z,29.50
2018-07-21T12:04:00.274Z,29.50
2018-07-21T12:06:29.768Z,29.40
2018-07-21T12:08:59.099Z,29.40
2018-07-21T12:11:28.374Z,29.40
2018-07-21T12:13:57.850Z,29.40
2018-07-21T12:16:27.294Z,29.40
2018-07-21T12:18:56.742Z,29.30
2018-07-21T12:21:26.178Z,29.20
2018-07-21T12:23:55.630Z,29.20
2018-07-21T12:26:25.096Z,29.10
2018-07-21T12:28:54.567Z,29.10
2018-07-21T12:31:23.946Z,29.00
2018-07-21T12:33:53.831Z,29.00
2018-07-21T12:36:23.158Z,29.10
2018-07-21T12:38:52.462Z,29.20
2018-07-21T12:41:21.762Z,29.30
2018-07-21T12:43:51.141Z,29.30
2018-07-21T12:46:20.494Z,29.20
2018-07-21T12:48:49.906Z,29.40
2018-07-21T12:51:19.218Z,29.40
2018-07-21T12:53:48.650Z,29.50
2018-07-21T12:56:18.117Z,29.60
2018-07-21T12:58:47.570Z,29.60
2018-07-21T13:01:17.063Z,29.70
2018-07-21T13:03:46.430Z,29.70
2018-07-21T13:06:16.875Z,29.70
2018-07-21T13:08:46.320Z,29.80
2018-07-21T13:11:15.654Z,29.80
2018-07-21T13:13:45.051Z,29.70
2018-07-21T13:16:14.379Z,29.70
2018-07-21T13:18:43.646Z,29.60
2018-07-21T13:21:12.914Z,29.60
2018-07-21T13:23:42.216Z,29.60
2018-07-21T13:26:11.542Z,29.60
2018-07-21T13:28:40.950Z,29.70
2018-07-21T13:31:10.395Z,29.70
2018-07-21T13:33:39.855Z,29.70
2018-07-21T13:36:09.318Z,29.70
2018-07-21T13:38:38.842Z,29.70
2018-07-21T13:41:08.322Z,29.70
2018-07-21T13:43:37.857Z,29.70
2018-07-21T13:46:07.379Z,29.60
2018-07-21T13:48:37.796Z,29.60
2018-07-21T13:51:07.451Z,29.70
2018-07-21T13:53:36.874Z,29.70
2018-07-21T13:56:06.263Z,29.80
2018-07-21T13:58:35.710Z,29.80
2018-07-21T14:01:05.036Z,30.00
2018-07-21T14:03:34.312Z,30.10
2018-07-21T14:06:03.622Z,30.20
2018-07-21T14:08:33.971Z,30.20
2018-07-21T14:11:03.382Z,30.20
2018-07-21T14:13:33.818Z,30.30
2018-07-21T14:16:03.335Z,30.30
2018-07-21T14:18:32.779Z,30.20
2018-07-21T14:21:02.215Z,30.10
2018-07-21T14:23:31.754Z,30.10
2018-07-21T14:26:01.219Z,30.00
2018-07-21T14:28:30.618Z,30.00
2018-07-21T14:31:00.096Z,29.90
2018-07-21T14:33:29.550Z,29.90
2018-07-21T14:35:58.937Z,30.00
2018-07-21T14:38:28.250Z,30.00
2018-07-21T14:40:57.528Z,30.10
2018-07-21T14:43:26.832Z,30.10
2018-07-21T14:45:56.159Z,30.10
2018-07-21T14:48:25.512Z,30.10
2018-07-21T14:50:55.000Z,30.20
2018-07-21T14:53:24.527Z,30.20
2018-07-21T14:55:53.966Z,30.30
2018-07-21T14:58:23.462Z,30.20
2018-07-21T15:00:52.914Z,30.20
2018-07-21T15:03:23.061Z,30.20
2018-07-21T15:05:52.438Z,30.20
2018-07-21T15:08:21.918Z,30.20
2018-07-21T15:10:51.390Z,30.10
2018-07-21T15:13:20.849Z,30.00
2018-07-21T15:15:50.204Z,29.90
2018-07-21T15:18:19.478Z,30.00
2018-07-21T15:20:48.771Z,29.90
2018-07-21T15:23:18.058Z,30.00
2018-07-21T15:25:47.346Z,30.00
2018-07-21T15:28:16.834Z,29.90
2018-07-21T15:30:46.282Z,29.90
2018-07-21T15:33:15.771Z,30.00
2018-07-21T15:35:45.090Z,30.00
2018-07-21T15:38:14.905Z,30.00
2018-07-21T15:40:44.346Z,30.10
2018-07-21T15:43:13.721Z,30.10
2018-07-21T15:45:43.162Z,30.10
2018-07-21T15:48:12.483Z,30.10
2018-07-21T15:50:41.810Z,30.10
2018-07-21T15:53:11.201Z,30.10
2018-07-21T15:55:40.521Z,30.00
2018-07-21T15:58:09.838Z,29.90
2018-07-21T16:00:39.142Z,29.80
2018-07-21T16:03:08.494Z,29.80
2018-07-21T16:05:37.770Z,29.70
2018-07-21T16:08:07.090Z,29.70
2018-07-21T16:10:36.554Z,29.70
2018-07-21T16:13:06.438Z,29.70
2018-07-21T16:15:35.860Z,29.60
2018-07-21T16:18:05.358Z,29.40
2018-07-21T16:20:35.047Z,29.40
2018-07-21T16:23:04.511Z,29.20
2018-07-21T16:25:34.506Z,29.20
2018-07-21T16:28:03.850Z,29.10
2018-07-21T16:30:33.218Z,29.00
2018-07-21T16:33:02.703Z,28.90
2018-07-21T16:35:32.022Z,28.70
2018-07-21T16:38:01.303Z,28.70
2018-07-21T16:40:30.637Z,28.60
2018-07-21T16:42:59.914Z,28.50
2018-07-21T16:45:29.358Z,28.40
2018-07-21T16:47:58.808Z,28.30
2018-07-21T16:50:28.202Z,28.30
2018-07-21T16:52:57.646Z,28.20
2018-07-21T16:55:27.017Z,28.20
2018-07-21T16:57:56.347Z,28.10
2018-07-21T17:00:25.727Z,27.90
2018-07-21T17:02:55.044Z,27.80
2018-07-21T17:05:24.578Z,27.70
2018-07-21T17:07:54.196Z,27.50
2018-07-21T17:10:23.594Z,27.50
2018-07-21T17:12:53.030Z,27.50
2018-07-21T17:15:22.358Z,27.40
2018-07-21T17:17:51.602Z,27.40
2018-07-21T17:20:20.858Z,27.40
2018-07-21T17:22:50.239Z,27.40
2018-07-21T17:25:19.668Z,27.40
2018-07-21T17:27:49.155Z,27.20
2018-07-21T17:30:18.480Z,26.90
2018-07-21T17:32:47.913Z,26.90
2018-07-21T17:35:17.454Z,26.80
2018-07-21T17:37:46.758Z,26.80
2018-07-21T17:40:16.303Z,26.80
2018-07-21T17:42:45.722Z,26.70
2018-07-21T17:45:15.127Z,26.60
2018-07-21T17:47:44.483Z,26.50
2018-07-21T17:50:13.975Z,26.30
2018-07-21T17:52:43.446Z,26.20
2018-07-21T17:55:12.770Z,26.20
2018-07-21T17:57:42.051Z,26.20
2018-07-21T18:00:11.477Z,26.10
2018-07-21T18:02:40.892Z,26.10
2018-07-21T18:05:10.261Z,26.00
2018-07-21T18:07:39.602Z,26.00
2018-07-21T18:10:08.993Z,25.90
2018-07-21T18:12:38.436Z,25.90
2018-07-21T18:15:07.946Z,25.80
2018-07-21T18:17:37.300Z,25.70
2018-07-21T18:20:06.652Z,25.60
2018-07-21T18:22:36.126Z,25.40
2018-07-21T18:25:05.580Z,25.40
2018-07-21T18:27:35.059Z,25.30
2018-07-21T18:30:04.480Z,25.20
2018-07-21T18:35:03.856Z,25.10
2018-07-21T18:37:33.143Z,25.00
2018-07-21T18:40:02.502Z,25.00
2018-07-21T18:42:31.734Z,25.00
2018-07-21T18:45:01.697Z,25.00
2018-07-21T18:47:31.006Z,24.90
2018-07-21T18:50:00.324Z,25.00
2018-07-21T18:52:29.778Z,24.90
2018-07-21T18:54:59.268Z,24.90
2018-07-21T18:57:28.714Z,24.80
2018-07-21T18:59:58.170Z,24.80
2018-07-21T19:02:27.702Z,24.70
2018-07-21T19:04:57.161Z,24.60
2018-07-21T19:07:26.618Z,24.50
2018-07-21T19:09:56.075Z,24.50
2018-07-21T19:12:30.798Z,24.30
2018-07-21T19:15:00.232Z,24.20
2018-07-21T19:17:29.713Z,24.10
2018-07-21T19:20:04.390Z,24.10
2018-07-21T19:22:33.671Z,24.00
2018-07-21T19:25:08.214Z,24.00
2018-07-21T19:27:37.643Z,24.00
2018-07-21T19:30:07.022Z,23.80
2018-07-21T19:32:41.710Z,23.70
2018-07-21T19:35:11.186Z,23.60
2018-07-21T19:37:45.842Z,23.60
2018-07-21T19:40:15.700Z,23.50
2018-07-21T19:42:45.111Z,23.50
2018-07-21T19:45:14.914Z,23.40
2018-07-21T19:47:44.415Z,23.50
2018-07-21T19:50:13.842Z,23.40
2018-07-21T19:52:43.271Z,23.40
2018-07-21T19:55:12.751Z,23.30
2018-07-21T19:57:42.031Z,23.30
2018-07-21T20:00:11.394Z,23.20
2018-07-21T20:02:40.690Z,23.20
2018-07-21T20:05:10.099Z,23.10
2018-07-21T20:12:33.167Z,23.10
2018-07-21T20:15:02.481Z,23.00
2018-07-21T20:17:32.004Z,23.00
2018-07-21T20:20:01.430Z,22.90
2018-07-21T20:22:30.890Z,22.90
2018-07-21T20:25:00.343Z,22.80
2018-07-21T20:27:29.792Z,22.80
2018-07-21T20:29:59.258Z,22.70
2018-07-21T20:32:28.716Z,22.70
2018-07-21T20:34:58.078Z,22.60
2018-07-21T20:37:27.359Z,22.60
2018-07-21T20:39:56.640Z,22.50
2018-07-21T20:42:25.975Z,22.50
2018-07-21T20:44:55.258Z,22.50
2018-07-21T20:47:24.731Z,22.40
2018-07-21T20:49:54.126Z,22.40
2018-07-21T20:52:23.610Z,22.30
2018-07-21T20:54:53.011Z,22.20
2018-07-21T20:57:22.430Z,22.20
2018-07-21T20:59:51.758Z,22.10
2018-07-21T21:02:21.185Z,22.10
2018-07-21T21:04:50.638Z,22.00
2018-07-21T21:07:20.046Z,22.00
2018-07-21T21:09:49.511Z,21.90
2018-07-21T21:12:18.896Z,21.80
2018-07-21T21:14:48.358Z,21.80
2018-07-21T21:17:17.652Z,21.70
2018-07-21T21:19:46.989Z,21.70
2018-07-21T21:22:16.373Z,21.60
2018-07-21T21:24:45.750Z,21.50
2018-07-21T21:27:15.260Z,21.50
2018-07-21T21:29:44.578Z,21.40
2018-07-21T21:32:14.078Z,21.30
2018-07-21T21:34:43.702Z,21.20
2018-07-21T21:37:13.230Z,21.10
2018-07-21T21:39:42.702Z,21.00
2018-07-21T21:42:12.298Z,20.90
2018-07-21T21:44:41.715Z,20.80
2018-07-21T21:47:11.207Z,20.60
2018-07-21T21:49:40.662Z,20.50
2018-07-21T21:52:10.126Z,20.30
2018-07-21T21:54:39.492Z,20.20
2018-07-21T21:57:08.743Z,20.10
2018-07-21T21:59:38.018Z,20.00
2018-07-21T22:02:07.576Z,19.90
2018-07-21T22:04:37.846Z,19.70
2018-07-21T22:07:07.254Z,19.70
2018-07-21T22:09:36.787Z,19.60
2018-07-21T22:12:06.250Z,19.40
2018-07-21T22:14:36.199Z,19.40
2018-07-21T22:17:05.720Z,19.30
2018-07-21T22:19:36.120Z,19.20
2018-07-21T22:22:05.617Z,19.10
2018-07-21T22:24:36.022Z,19.10
2018-07-21T22:27:05.562Z,19.00
2018-07-21T22:29:34.927Z,18.90
2018-07-21T22:32:04.428Z,18.90
2018-07-21T22:34:33.811Z,18.90
2018-07-21T22:37:03.494Z,18.80
2018-07-21T22:39:32.799Z,18.80
2018-07-21T22:42:02.177Z,18.70
2018-07-21T22:44:31.458Z,18.60
2018-07-21T22:47:00.954Z,18.60
2018-07-21T22:49:30.418Z,18.50
2018-07-21T22:51:59.811Z,18.40
2018-07-21T22:54:29.237Z,18.40
2018-07-21T22:56:58.690Z,18.40
2018-07-21T22:59:28.148Z,18.30
2018-07-21T23:02:00.045Z,18.30
2018-07-21T23:04:29.523Z,18.20
2018-07-21T23:06:59.023Z,18.20
2018-07-21T23:09:28.515Z,18.10
2018-07-21T23:11:57.832Z,18.10
2018-07-21T23:14:27.167Z,18.10
2018-07-21T23:16:56.466Z,18.00
2018-07-21T23:19:25.778Z,18.00
2018-07-21T23:21:55.063Z,17.90
2018-07-21T23:24:24.354Z,18.00
2018-07-21T23:26:53.818Z,17.90
2018-07-21T23:29:23.266Z,17.90
2018-07-21T23:31:52.772Z,17.80
2018-07-21T23:34:22.248Z,17.70
2018-07-21T23:36:51.714Z,17.60
2018-07-21T23:39:22.744Z,17.60
2018-07-21T23:41:52.240Z,17.50
2018-07-21T23:44:21.726Z,17.50
2018-07-21T23:46:51.250Z,17.40
2018-07-21T23:49:20.738Z,17.40
2018-07-21T23:51:50.114Z,17.30
2018-07-21T23:54:19.563Z,17.30
2018-07-21T23:56:48.945Z,17.20
2018-07-21T23:59:18.251Z,17.20
